Orlando, Florida
Current Conditions -  °F | °C
As of 10:53 PM on Saturday 20 Dec 2014 (Local Time) from KORL Reporting Station
Overcast Overcast  
Wind Chill: 18°   Ceiling: 9500
Heat Index: 18°   Visibility: 10mi
Dew Point: 17°   Wind: 5mph
Humidity: 90%   Direction: 40°NE
Pressure: 30.1"   Gusts: NA
Location:  28.54°N, 81.38°W
Report Text: KORL 210353Z 04004KT 10SM OVC095 18/17 A3010 RMK AO2 SLP197 T01830167
Loading
Personal Weather Stations






























Interactive Weather Map New forecast layout! Learn more

10-Day Weather Forecast

Advertisements
Track Severe Weather on mobile